Minerva Virgo — SXXT — position and weather

sailwx.info

Track history (hours):
 
Tides and Currents Weather Stations Pressure Air Temp Water Temp Dewpoint Dewpoint Depression Visibility Wind Speed Wind Dir Waves Ship Positions

Minerva Virgo

Last reported at 2017-Apr-21 18:24 UTC. Time now 2017-Apr-27 18:48 UTC.
Position N 43°58' W 006°18'.

Length 182 m; draft 10.4 m.

Type: Ship (hazmat cat C). MMSI: 240730000.

Date/timePositionNaut miles runAvg speedWind from/ knotsBaromVisibWave heightAir tempDewpointWater temp
2017-Apr-21 18:24N 43°58' W 006°18'513.0
2017-Apr-21 17:59N 43°55' W 006°11'613.4
2017-Apr-21 17:30N 43°52' W 006°04'713.3
2017-Apr-21 17:00N 43°48' W 005°56'713.4
2017-Apr-21 16:30N 43°44' W 005°49'713.3
2017-Apr-21 16:00N 43°39' W 005°43'6 1.3
2017-Apr-21 11:44N 43°33' W 005°41'0 0.0
2017-Apr-21 10:14N 43°33' W 005°41'0 0.0
2017-Apr-21 09:56N 43°33' W 005°41'0 0.0
2017-Apr-21 09:31N 43°33' W 005°41'1 1.7
2017-Apr-21 09:00N 43°34' W 005°40'3 5.4
2017-Apr-21 08:31N 43°37' W 005°41'2 3.6
2017-Apr-21 07:59N 43°38' W 005°42'1 1.5
2017-Apr-21 07:31N 43°39' W 005°41'0 0.5
2017-Apr-21 07:00N 43°39' W 005°41'2 3.7
2017-Apr-21 06:31N 43°39' W 005°39'2 3.9
2017-Apr-21 06:00N 43°38' W 005°36'2 3.9
2017-Apr-21 05:30N 43°39' W 005°38'2 3.7
2017-Apr-21 05:01N 43°39' W 005°41'2 4.0
2017-Apr-21 04:30N 43°40' W 005°44'4 7.7
2017-Apr-21 04:00N 43°42' W 005°48'3 6.1
2017-Apr-21 03:31N 43°43' W 005°52'2 4.5
2017-Apr-21 03:01N 43°42' W 005°49'3 6.7
2017-Apr-21 02:30N 43°41' W 005°44'3 6.4
2017-Apr-21 02:01N 43°41' W 005°40'3 6.5
2017-Apr-21 01:31N 43°41' W 005°36'3 6.9
2017-Apr-21 01:01N 43°41' W 005°31'4 7.2
2017-Apr-21 00:31N 43°40' W 005°26'2 0.3
2017-Apr-20 18:14N 43°41' W 005°28'1 5.0
2017-Apr-20 18:00N 43°41' W 005°30'3 5.0
2017-Apr-20 17:30N 43°41' W 005°34'3 5.3
2017-Apr-20 17:00N 43°41' W 005°37'3 5.4
2017-Apr-20 16:31N 43°41' W 005°41'3 5.1
2017-Apr-20 16:00N 43°41' W 005°44'3 5.1
2017-Apr-20 15:31N 43°42' W 005°48'2 4.0
2017-Apr-20 15:01N 43°42' W 005°51'3 2.6
2017-Apr-20 14:00N 43°41' W 005°47'3 6.5
2017-Apr-20 13:30N 43°40' W 005°43'4 7.0
2017-Apr-20 13:00N 43°39' W 005°38'3 7.1
2017-Apr-20 12:31N 43°38' W 005°34'3 6.9
2017-Apr-20 12:01N 43°38' W 005°29'4 7.2
2017-Apr-20 11:31N 43°37' W 005°24'2 2.3
2017-Apr-20 10:37N 43°37' W 005°27'1 5.8
2017-Apr-20 10:24N 43°37' W 005°29'2 5.8
2017-Apr-20 10:00N 43°37' W 005°32'3 5.5
2017-Apr-20 09:30N 43°37' W 005°36'3 5.8
2017-Apr-20 08:59N 43°38' W 005°40'3 5.5
2017-Apr-20 08:31N 43°40' W 005°43'3 5.1
2017-Apr-20 08:01N 43°41' W 005°46'2 4.5
2017-Apr-20 07:31N 43°42' W 005°49'2 3.7
2017-Apr-20 07:00N 43°42' W 005°51'4 7.4
2017-Apr-20 06:30N 43°41' W 005°46'3 7.0
2017-Apr-20 06:00N 43°40' W 005°42'3 6.6
2017-Apr-20 05:31N 43°38' W 005°38'4 7.5
2017-Apr-20 05:00N 43°37' W 005°33'611.5
2017-Apr-20 04:31N 43°36' W 005°25'713.1
2017-Apr-20 04:00N 43°36' W 005°16'1813.2
2017-Apr-20 02:39N 43°36' W 004°52'  
2017-Apr-16 06:46N 43°46' W 005°12'312.1
2017-Apr-16 06:30N 43°47' W 005°17'612.1
2017-Apr-16 06:00N 43°48' W 005°25'612.3
2017-Apr-16 05:30N 43°49' W 005°33'612.4
2017-Apr-16 04:59N 43°49' W 005°42'612.3
2017-Apr-16 04:30N 43°50' W 005°50'712.3
2017-Apr-16 03:57N 43°50' W 005°60'612.3
2017-Apr-16 03:26N 43°51' W 006°08'1012.2
2017-Apr-16 02:35N 43°52' W 006°23'31711.2
2017-Apr-14 22:19N 39°29' W 010°19'916.2
2017-Apr-14 21:48N 39°20' W 010°20'616.6
2017-Apr-14 21:27N 39°14' W 010°20'716.8
2017-Apr-14 21:00N 39°07' W 010°21'816.7
2017-Apr-14 20:30N 38°59' W 010°22'4816.7
2017-Apr-14 17:36N 38°10' W 010°27'416.8
2017-Apr-14 17:22N 38°06' W 010°28'52513.3
2017-Apr-13 01:52N 29°45' W 013°35'412.3
2017-Apr-13 01:30N 29°42' W 013°38'2312.4
2017-Apr-12 23:41N 29°26' W 013°57'212.6
2017-Apr-12 23:30N 29°24' W 013°59'712.5
2017-Apr-12 22:55N 29°19' W 014°04'712.7
2017-Apr-12 22:24N 29°14' W 014°10'512.4
2017-Apr-12 22:00N 29°11' W 014°14'612.4
2017-Apr-12 21:30N 29°06' W 014°19'712.5
2017-Apr-12 20:57N 29°01' W 014°24'812.4
2017-Apr-12 20:19N 28°56' W 014°31'412.4
2017-Apr-12 20:00N 28°53' W 014°34'612.3
2017-Apr-12 19:30N 28°49' W 014°38'612.4
2017-Apr-12 19:00N 28°44' W 014°43'712.5
2017-Apr-12 18:27N 28°39' W 014°49'612.4
2017-Apr-12 18:00N 28°35' W 014°53'612.5
2017-Apr-12 17:30N 28°31' W 014°58'612.5
2017-Apr-12 17:01N 28°26' W 015°03'612.5
2017-Apr-12 16:31N 28°22' W 015°08'611.6
2017-Apr-12 16:00N 28°18' W 015°13'611.0
2017-Apr-12 15:30N 28°14' W 015°17'611.1
2017-Apr-12 15:01N 28°09' W 015°20'1 1.1
2017-Apr-12 14:00N 28°08' W 015°20'1 1.8
2017-Apr-12 13:31N 28°07' W 015°19'1 1.0
2017-Apr-12 13:01N 28°08' W 015°19'1 2.5
2017-Apr-12 12:31N 28°08' W 015°20'0 0.6
2017-Apr-12 12:01N 28°08' W 015°20'0 0.7
2017-Apr-12 11:30N 28°08' W 015°19'0 0.8
2017-Apr-12 11:00N 28°08' W 015°19'0 0.9
2017-Apr-12 10:30N 28°07' W 015°19'3 5.2
2017-Apr-12 10:00N 28°07' W 015°22'0 0.9
2017-Apr-12 09:30N 28°07' W 015°21'0 0.8
2017-Apr-12 09:00N 28°07' W 015°21'1 2.6
2017-Apr-12 08:30N 28°06' W 015°20'611.7
2017-Apr-12 08:00N 28°01' W 015°17'611.9
2017-Apr-12 07:30N 27°55' W 015°15'510.8
2017-Apr-12 07:00N 27°50' W 015°16'510.8
2017-Apr-12 06:30N 27°45' W 015°18'  
Track history (hours):
 
Tides and Currents Weather Stations Pressure Air Temp Water Temp Dewpoint Dewpoint Depression Visibility Wind Speed Wind Dir Waves Ship Positions

Minerva Virgo

Last reported at 2017-Apr-21 18:24 UTC. Time now 2017-Apr-27 18:48 UTC.
Position N 43°58' W 006°18'.

Length 182 m; draft 10.4 m.

Type: Ship (hazmat cat C). MMSI: 240730000.

Date/timePositionNaut miles runAvg speedWind from/ knotsBaromVisibWave heightAir tempDewpointWater temp
2017-Apr-21 18:24N 43°58' W 006°18'513.0
2017-Apr-21 17:59N 43°55' W 006°11'613.4
2017-Apr-21 17:30N 43°52' W 006°04'713.3
2017-Apr-21 17:00N 43°48' W 005°56'713.4
2017-Apr-21 16:30N 43°44' W 005°49'713.3
2017-Apr-21 16:00N 43°39' W 005°43'6 1.3
2017-Apr-21 11:44N 43°33' W 005°41'0 0.0
2017-Apr-21 10:14N 43°33' W 005°41'0 0.0
2017-Apr-21 09:56N 43°33' W 005°41'0 0.0
2017-Apr-21 09:31N 43°33' W 005°41'1 1.7
2017-Apr-21 09:00N 43°34' W 005°40'3 5.4
2017-Apr-21 08:31N 43°37' W 005°41'2 3.6
2017-Apr-21 07:59N 43°38' W 005°42'1 1.5
2017-Apr-21 07:31N 43°39' W 005°41'0 0.5
2017-Apr-21 07:00N 43°39' W 005°41'2 3.7
2017-Apr-21 06:31N 43°39' W 005°39'2 3.9
2017-Apr-21 06:00N 43°38' W 005°36'2 3.9
2017-Apr-21 05:30N 43°39' W 005°38'2 3.7
2017-Apr-21 05:01N 43°39' W 005°41'2 4.0
2017-Apr-21 04:30N 43°40' W 005°44'4 7.7
2017-Apr-21 04:00N 43°42' W 005°48'3 6.1
2017-Apr-21 03:31N 43°43' W 005°52'2 4.5
2017-Apr-21 03:01N 43°42' W 005°49'3 6.7
2017-Apr-21 02:30N 43°41' W 005°44'3 6.4
2017-Apr-21 02:01N 43°41' W 005°40'3 6.5
2017-Apr-21 01:31N 43°41' W 005°36'3 6.9
2017-Apr-21 01:01N 43°41' W 005°31'4 7.2
2017-Apr-21 00:31N 43°40' W 005°26'2 0.3
2017-Apr-20 18:14N 43°41' W 005°28'1 5.0
2017-Apr-20 18:00N 43°41' W 005°30'3 5.0
2017-Apr-20 17:30N 43°41' W 005°34'3 5.3
2017-Apr-20 17:00N 43°41' W 005°37'3 5.4
2017-Apr-20 16:31N 43°41' W 005°41'3 5.1
2017-Apr-20 16:00N 43°41' W 005°44'3 5.1
2017-Apr-20 15:31N 43°42' W 005°48'2 4.0
2017-Apr-20 15:01N 43°42' W 005°51'3 2.6
2017-Apr-20 14:00N 43°41' W 005°47'3 6.5
2017-Apr-20 13:30N 43°40' W 005°43'4 7.0
2017-Apr-20 13:00N 43°39' W 005°38'3 7.1
2017-Apr-20 12:31N 43°38' W 005°34'3 6.9
2017-Apr-20 12:01N 43°38' W 005°29'4 7.2
2017-Apr-20 11:31N 43°37' W 005°24'2 2.3
2017-Apr-20 10:37N 43°37' W 005°27'1 5.8
2017-Apr-20 10:24N 43°37' W 005°29'2 5.8
2017-Apr-20 10:00N 43°37' W 005°32'3 5.5
2017-Apr-20 09:30N 43°37' W 005°36'3 5.8
2017-Apr-20 08:59N 43°38' W 005°40'3 5.5
2017-Apr-20 08:31N 43°40' W 005°43'3 5.1
2017-Apr-20 08:01N 43°41' W 005°46'2 4.5
2017-Apr-20 07:31N 43°42' W 005°49'2 3.7
2017-Apr-20 07:00N 43°42' W 005°51'4 7.4
2017-Apr-20 06:30N 43°41' W 005°46'3 7.0
2017-Apr-20 06:00N 43°40' W 005°42'3 6.6
2017-Apr-20 05:31N 43°38' W 005°38'4 7.5
2017-Apr-20 05:00N 43°37' W 005°33'611.5
2017-Apr-20 04:31N 43°36' W 005°25'713.1
2017-Apr-20 04:00N 43°36' W 005°16'1813.2
2017-Apr-20 02:39N 43°36' W 004°52'  
2017-Apr-16 06:46N 43°46' W 005°12'312.1
2017-Apr-16 06:30N 43°47' W 005°17'612.1
2017-Apr-16 06:00N 43°48' W 005°25'612.3
2017-Apr-16 05:30N 43°49' W 005°33'612.4
2017-Apr-16 04:59N 43°49' W 005°42'612.3
2017-Apr-16 04:30N 43°50' W 005°50'712.3
2017-Apr-16 03:57N 43°50' W 005°60'612.3
2017-Apr-16 03:26N 43°51' W 006°08'1012.2
2017-Apr-16 02:35N 43°52' W 006°23'31711.2
2017-Apr-14 22:19N 39°29' W 010°19'916.2
2017-Apr-14 21:48N 39°20' W 010°20'616.6
2017-Apr-14 21:27N 39°14' W 010°20'716.8
2017-Apr-14 21:00N 39°07' W 010°21'816.7
2017-Apr-14 20:30N 38°59' W 010°22'4816.7
2017-Apr-14 17:36N 38°10' W 010°27'416.8
2017-Apr-14 17:22N 38°06' W 010°28'52513.3
2017-Apr-13 01:52N 29°45' W 013°35'412.3
2017-Apr-13 01:30N 29°42' W 013°38'2312.4
2017-Apr-12 23:41N 29°26' W 013°57'212.6
2017-Apr-12 23:30N 29°24' W 013°59'712.5
2017-Apr-12 22:55N 29°19' W 014°04'712.7
2017-Apr-12 22:24N 29°14' W 014°10'512.4
2017-Apr-12 22:00N 29°11' W 014°14'612.4
2017-Apr-12 21:30N 29°06' W 014°19'712.5
2017-Apr-12 20:57N 29°01' W 014°24'812.4
2017-Apr-12 20:19N 28°56' W 014°31'412.4
2017-Apr-12 20:00N 28°53' W 014°34'612.3
2017-Apr-12 19:30N 28°49' W 014°38'612.4
2017-Apr-12 19:00N 28°44' W 014°43'712.5
2017-Apr-12 18:27N 28°39' W 014°49'612.4
2017-Apr-12 18:00N 28°35' W 014°53'612.5
2017-Apr-12 17:30N 28°31' W 014°58'612.5
2017-Apr-12 17:01N 28°26' W 015°03'612.5
2017-Apr-12 16:31N 28°22' W 015°08'611.6
2017-Apr-12 16:00N 28°18' W 015°13'611.0
2017-Apr-12 15:30N 28°14' W 015°17'611.1
2017-Apr-12 15:01N 28°09' W 015°20'1 1.1
2017-Apr-12 14:00N 28°08' W 015°20'1 1.8
2017-Apr-12 13:31N 28°07' W 015°19'1 1.0
2017-Apr-12 13:01N 28°08' W 015°19'1 2.5
2017-Apr-12 12:31N 28°08' W 015°20'0 0.6
2017-Apr-12 12:01N 28°08' W 015°20'0 0.7
2017-Apr-12 11:30N 28°08' W 015°19'0 0.8
2017-Apr-12 11:00N 28°08' W 015°19'0 0.9
2017-Apr-12 10:30N 28°07' W 015°19'3 5.2
2017-Apr-12 10:00N 28°07' W 015°22'0 0.9
2017-Apr-12 09:30N 28°07' W 015°21'0 0.8
2017-Apr-12 09:00N 28°07' W 015°21'1 2.6
2017-Apr-12 08:30N 28°06' W 015°20'611.7
2017-Apr-12 08:00N 28°01' W 015°17'611.9
2017-Apr-12 07:30N 27°55' W 015°15'510.8
2017-Apr-12 07:00N 27°50' W 015°16'510.8
2017-Apr-12 06:30N 27°45' W 015°18'  

Dump ship's entire track history